sensor_id;sensor_type;location;lat;lon;timestamp;P1;durP1;ratioP1;P2;durP2;ratioP2
8556;SDS011;4316;53.840;10.762;2023-06-19T00:02:00;4.95;;;4.50;;
8556;SDS011;4316;53.840;10.762;2023-06-19T00:04:26;5.03;;;4.60;;
8556;SDS011;4316;53.840;10.762;2023-06-19T00:06:52;5.32;;;4.85;;
8556;SDS011;4316;53.840;10.762;2023-06-19T00:09:18;6.07;;;4.20;;
8556;SDS011;4316;53.840;10.762;2023-06-19T00:11:44;6.28;;;4.72;;
8556;SDS011;4316;53.840;10.762;2023-06-19T00:14:10;5.20;;;4.38;;
8556;SDS011;4316;53.840;10.762;2023-06-19T00:16:36;10.02;;;4.25;;
8556;SDS011;4316;53.840;10.762;2023-06-19T00:19:01;5.72;;;4.72;;
8556;SDS011;4316;53.840;10.762;2023-06-19T00:21:28;5.10;;;4.60;;
8556;SDS011;4316;53.840;10.762;2023-06-19T00:23:54;11.23;;;4.88;;
8556;SDS011;4316;53.840;10.762;2023-06-19T00:26:20;8.82;;;4.68;;
8556;SDS011;4316;53.840;10.762;2023-06-19T00:28:50;7.22;;;4.32;;
8556;SDS011;4316;53.840;10.762;2023-06-19T00:31:16;9.95;;;5.03;;
8556;SDS011;4316;53.840;10.762;2023-06-19T00:33:43;5.30;;;4.80;;
8556;SDS011;4316;53.840;10.762;2023-06-19T00:36:12;7.20;;;4.55;;
8556;SDS011;4316;53.840;10.762;2023-06-19T00:38:46;5.60;;;5.07;;
8556;SDS011;4316;53.840;10.762;2023-06-19T00:41:13;6.75;;;4.88;;
8556;SDS011;4316;53.840;10.762;2023-06-19T00:43:41;8.50;;;5.15;;
8556;SDS011;4316;53.840;10.762;2023-06-19T00:46:06;9.45;;;5.47;;
8556;SDS011;4316;53.840;10.762;2023-06-19T00:48:32;9.50;;;5.25;;
8556;SDS011;4316;53.840;10.762;2023-06-19T00:50:58;6.80;;;4.85;;
8556;SDS011;4316;53.840;10.762;2023-06-19T00:53:25;7.57;;;4.90;;
8556;SDS011;4316;53.840;10.762;2023-06-19T00:55:51;5.57;;;4.50;;
8556;SDS011;4316;53.840;10.762;2023-06-19T00:58:19;5.85;;;5.00;;
8556;SDS011;4316;53.840;10.762;2023-06-19T01:00:45;4.88;;;4.35;;
8556;SDS011;4316;53.840;10.762;2023-06-19T01:03:12;5.38;;;4.57;;
8556;SDS011;4316;53.840;10.762;2023-06-19T01:05:38;5.20;;;4.30;;
8556;SDS011;4316;53.840;10.762;2023-06-19T01:08:12;4.80;;;4.40;;
8556;SDS011;4316;53.840;10.762;2023-06-19T01:10:38;5.10;;;4.60;;
8556;SDS011;4316;53.840;10.762;2023-06-19T01:13:12;6.90;;;4.53;;
8556;SDS011;4316;53.840;10.762;2023-06-19T01:15:56;5.93;;;5.07;;
8556;SDS011;4316;53.840;10.762;2023-06-19T01:18:22;5.10;;;4.53;;
8556;SDS011;4316;53.840;10.762;2023-06-19T01:20:49;7.32;;;4.43;;
8556;SDS011;4316;53.840;10.762;2023-06-19T01:23:15;4.47;;;4.18;;
8556;SDS011;4316;53.840;10.762;2023-06-19T01:25:41;6.03;;;4.70;;
8556;SDS011;4316;53.840;10.762;2023-06-19T01:28:07;5.15;;;4.65;;
8556;SDS011;4316;53.840;10.762;2023-06-19T01:30:37;5.97;;;5.25;;
8556;SDS011;4316;53.840;10.762;2023-06-19T01:33:19;5.63;;;4.43;;
8556;SDS011;4316;53.840;10.762;2023-06-19T01:35:50;6.40;;;4.50;;
8556;SDS011;4316;53.840;10.762;2023-06-19T01:38:19;5.32;;;4.63;;
8556;SDS011;4316;53.840;10.762;2023-06-19T01:40:46;5.97;;;4.57;;
8556;SDS011;4316;53.840;10.762;2023-06-19T01:43:16;6.07;;;4.47;;
8556;SDS011;4316;53.840;10.762;2023-06-19T01:45:43;4.65;;;4.25;;
8556;SDS011;4316;53.840;10.762;2023-06-19T01:48:09;5.45;;;4.50;;
8556;SDS011;4316;53.840;10.762;2023-06-19T01:50:37;4.18;;;3.83;;
8556;SDS011;4316;53.840;10.762;2023-06-19T01:53:04;7.47;;;4.43;;
8556;SDS011;4316;53.840;10.762;2023-06-19T01:55:29;5.60;;;4.75;;
8556;SDS011;4316;53.840;10.762;2023-06-19T01:57:56;8.10;;;4.43;;
8556;SDS011;4316;53.840;10.762;2023-06-19T02:00:22;5.10;;;4.47;;
8556;SDS011;4316;53.840;10.762;2023-06-19T02:02:47;5.40;;;4.90;;
8556;SDS011;4316;53.840;10.762;2023-06-19T02:05:13;7.35;;;4.57;;
8556;SDS011;4316;53.840;10.762;2023-06-19T02:07:40;8.18;;;4.50;;
8556;SDS011;4316;53.840;10.762;2023-06-19T02:10:06;7.60;;;4.55;;
8556;SDS011;4316;53.840;10.762;2023-06-19T02:12:33;5.90;;;4.50;;
8556;SDS011;4316;53.840;10.762;2023-06-19T02:14:59;5.13;;;4.72;;
8556;SDS011;4316;53.840;10.762;2023-06-19T02:17:24;5.13;;;4.63;;
8556;SDS011;4316;53.840;10.762;2023-06-19T02:19:50;5.43;;;4.43;;
8556;SDS011;4316;53.840;10.762;2023-06-19T02:22:17;6.18;;;4.75;;
8556;SDS011;4316;53.840;10.762;2023-06-19T02:24:43;5.10;;;4.68;;
8556;SDS011;4316;53.840;10.762;2023-06-19T02:27:11;7.88;;;5.18;;
8556;SDS011;4316;53.840;10.762;2023-06-19T02:29:37;8.00;;;5.07;;
8556;SDS011;4316;53.840;10.762;2023-06-19T02:32:02;7.63;;;5.22;;
8556;SDS011;4316;53.840;10.762;2023-06-19T02:34:28;6.40;;;5.00;;
8556;SDS011;4316;53.840;10.762;2023-06-19T02:36:54;5.72;;;5.03;;
8556;SDS011;4316;53.840;10.762;2023-06-19T02:39:20;11.23;;;5.25;;
8556;SDS011;4316;53.840;10.762;2023-06-19T02:41:47;6.90;;;5.25;;
8556;SDS011;4316;53.840;10.762;2023-06-19T02:44:13;5.72;;;5.18;;
8556;SDS011;4316;53.840;10.762;2023-06-19T02:46:39;6.95;;;5.28;;
8556;SDS011;4316;53.840;10.762;2023-06-19T02:49:04;5.77;;;5.13;;
8556;SDS011;4316;53.840;10.762;2023-06-19T02:51:30;5.30;;;4.80;;
8556;SDS011;4316;53.840;10.762;2023-06-19T02:53:55;7.80;;;5.00;;
8556;SDS011;4316;53.840;10.762;2023-06-19T02:56:21;5.28;;;4.78;;
8556;SDS011;4316;53.840;10.762;2023-06-19T02:58:48;6.45;;;4.70;;
8556;SDS011;4316;53.840;10.762;2023-06-19T03:01:13;5.25;;;4.70;;
8556;SDS011;4316;53.840;10.762;2023-06-19T03:03:39;5.50;;;5.00;;
8556;SDS011;4316;53.840;10.762;2023-06-19T03:06:06;6.33;;;5.00;;
8556;SDS011;4316;53.840;10.762;2023-06-19T03:08:33;5.37;;;4.77;;
8556;SDS011;4316;53.840;10.762;2023-06-19T03:11:03;8.60;;;4.53;;
8556;SDS011;4316;53.840;10.762;2023-06-19T03:13:33;8.52;;;5.03;;
8556;SDS011;4316;53.840;10.762;2023-06-19T03:16:08;6.93;;;5.20;;
8556;SDS011;4316;53.840;10.762;2023-06-19T03:18:34;7.87;;;5.30;;
8556;SDS011;4316;53.840;10.762;2023-06-19T03:20:59;7.03;;;5.50;;
8556;SDS011;4316;53.840;10.762;2023-06-19T03:23:25;10.40;;;5.10;;
8556;SDS011;4316;53.840;10.762;2023-06-19T03:25:51;5.32;;;4.82;;
8556;SDS011;4316;53.840;10.762;2023-06-19T03:28:16;7.03;;;5.33;;
8556;SDS011;4316;53.840;10.762;2023-06-19T03:30:42;6.13;;;5.40;;
8556;SDS011;4316;53.840;10.762;2023-06-19T03:33:08;10.83;;;5.47;;
8556;SDS011;4316;53.840;10.762;2023-06-19T03:35:38;9.90;;;5.22;;
8556;SDS011;4316;53.840;10.762;2023-06-19T03:38:06;10.20;;;5.03;;
8556;SDS011;4316;53.840;10.762;2023-06-19T03:40:32;5.28;;;4.47;;
8556;SDS011;4316;53.840;10.762;2023-06-19T03:43:03;7.07;;;5.38;;
8556;SDS011;4316;53.840;10.762;2023-06-19T03:45:28;6.05;;;4.80;;
8556;SDS011;4316;53.840;10.762;2023-06-19T03:47:54;9.40;;;5.00;;
8556;SDS011;4316;53.840;10.762;2023-06-19T03:50:19;5.43;;;4.93;;
8556;SDS011;4316;53.840;10.762;2023-06-19T03:52:45;5.85;;;5.25;;
8556;SDS011;4316;53.840;10.762;2023-06-19T03:55:11;7.22;;;5.15;;
8556;SDS011;4316;53.840;10.762;2023-06-19T03:57:36;6.72;;;4.90;;
8556;SDS011;4316;53.840;10.762;2023-06-19T04:00:02;5.00;;;4.55;;
8556;SDS011;4316;53.840;10.762;2023-06-19T04:02:37;12.05;;;5.10;;
8556;SDS011;4316;53.840;10.762;2023-06-19T04:05:03;5.05;;;4.53;;
8556;SDS011;4316;53.840;10.762;2023-06-19T04:07:29;7.23;;;5.30;;
8556;SDS011;4316;53.840;10.762;2023-06-19T04:09:56;5.70;;;5.18;;
8556;SDS011;4316;53.840;10.762;2023-06-19T04:12:22;7.50;;;4.65;;
8556;SDS011;4316;53.840;10.762;2023-06-19T04:14:48;7.07;;;4.57;;
8556;SDS011;4316;53.840;10.762;2023-06-19T04:17:14;9.38;;;4.97;;
8556;SDS011;4316;53.840;10.762;2023-06-19T04:19:40;5.68;;;4.68;;
8556;SDS011;4316;53.840;10.762;2023-06-19T04:22:06;5.60;;;4.65;;
8556;SDS011;4316;53.840;10.762;2023-06-19T04:24:32;7.43;;;5.18;;
8556;SDS011;4316;53.840;10.762;2023-06-19T04:26:58;8.77;;;4.80;;
8556;SDS011;4316;53.840;10.762;2023-06-19T04:29:24;7.18;;;4.30;;
8556;SDS011;4316;53.840;10.762;2023-06-19T04:31:50;5.18;;;4.63;;
8556;SDS011;4316;53.840;10.762;2023-06-19T04:34:16;9.15;;;4.80;;
8556;SDS011;4316;53.840;10.762;2023-06-19T04:36:46;5.13;;;4.63;;
8556;SDS011;4316;53.840;10.762;2023-06-19T04:39:12;9.52;;;5.30;;
8556;SDS011;4316;53.840;10.762;2023-06-19T04:41:38;7.63;;;5.43;;
8556;SDS011;4316;53.840;10.762;2023-06-19T04:44:04;7.80;;;5.38;;
8556;SDS011;4316;53.840;10.762;2023-06-19T04:46:30;5.15;;;4.63;;
8556;SDS011;4316;53.840;10.762;2023-06-19T04:48:55;10.73;;;5.13;;
8556;SDS011;4316;53.840;10.762;2023-06-19T04:51:21;8.85;;;4.75;;
8556;SDS011;4316;53.840;10.762;2023-06-19T04:53:48;6.27;;;4.97;;
8556;SDS011;4316;53.840;10.762;2023-06-19T04:56:13;5.68;;;5.03;;
8556;SDS011;4316;53.840;10.762;2023-06-19T04:58:40;6.97;;;5.03;;
8556;SDS011;4316;53.840;10.762;2023-06-19T05:01:11;5.50;;;5.00;;
8556;SDS011;4316;53.840;10.762;2023-06-19T05:03:37;4.80;;;4.40;;
8556;SDS011;4316;53.840;10.762;2023-06-19T05:06:04;5.28;;;4.78;;
8556;SDS011;4316;53.840;10.762;2023-06-19T05:08:29;16.75;;;5.35;;
8556;SDS011;4316;53.840;10.762;2023-06-19T05:10:55;6.70;;;5.20;;
8556;SDS011;4316;53.840;10.762;2023-06-19T05:13:22;6.95;;;5.13;;
8556;SDS011;4316;53.840;10.762;2023-06-19T05:15:48;5.72;;;5.10;;
8556;SDS011;4316;53.840;10.762;2023-06-19T05:18:15;5.68;;;5.18;;
8556;SDS011;4316;53.840;10.762;2023-06-19T05:20:41;7.97;;;5.05;;
8556;SDS011;4316;53.840;10.762;2023-06-19T05:23:06;7.03;;;5.40;;
8556;SDS011;4316;53.840;10.762;2023-06-19T05:25:32;6.63;;;5.28;;
8556;SDS011;4316;53.840;10.762;2023-06-19T05:27:58;5.15;;;4.65;;
8556;SDS011;4316;53.840;10.762;2023-06-19T05:30:23;5.53;;;4.72;;
8556;SDS011;4316;53.840;10.762;2023-06-19T05:32:49;7.22;;;5.00;;
8556;SDS011;4316;53.840;10.762;2023-06-19T05:35:14;7.85;;;5.03;;
8556;SDS011;4316;53.840;10.762;2023-06-19T05:37:40;6.95;;;4.70;;
8556;SDS011;4316;53.840;10.762;2023-06-19T05:40:08;5.45;;;4.95;;
8556;SDS011;4316;53.840;10.762;2023-06-19T05:42:35;7.78;;;5.28;;
8556;SDS011;4316;53.840;10.762;2023-06-19T05:45:01;7.70;;;4.97;;
8556;SDS011;4316;53.840;10.762;2023-06-19T05:47:27;9.02;;;5.18;;
8556;SDS011;4316;53.840;10.762;2023-06-19T05:49:54;11.07;;;4.93;;
8556;SDS011;4316;53.840;10.762;2023-06-19T05:52:20;7.82;;;5.05;;
8556;SDS011;4316;53.840;10.762;2023-06-19T05:54:46;15.25;;;6.03;;
8556;SDS011;4316;53.840;10.762;2023-06-19T05:57:12;6.40;;;5.28;;
8556;SDS011;4316;53.840;10.762;2023-06-19T05:59:40;5.47;;;4.65;;
8556;SDS011;4316;53.840;10.762;2023-06-19T06:02:06;4.80;;;4.25;;
8556;SDS011;4316;53.840;10.762;2023-06-19T06:04:32;10.25;;;5.00;;
8556;SDS011;4316;53.840;10.762;2023-06-19T06:06:59;4.90;;;4.40;;
8556;SDS011;4316;53.840;10.762;2023-06-19T06:09:25;5.47;;;4.78;;
8556;SDS011;4316;53.840;10.762;2023-06-19T06:11:50;8.18;;;5.20;;
8556;SDS011;4316;53.840;10.762;2023-06-19T06:14:16;9.20;;;5.05;;
8556;SDS011;4316;53.840;10.762;2023-06-19T06:16:41;5.20;;;4.70;;
8556;SDS011;4316;53.840;10.762;2023-06-19T06:19:07;5.78;;;5.13;;
8556;SDS011;4316;53.840;10.762;2023-06-19T06:21:32;9.65;;;6.07;;
8556;SDS011;4316;53.840;10.762;2023-06-19T06:23:59;11.63;;;6.50;;
8556;SDS011;4316;53.840;10.762;2023-06-19T06:26:25;9.50;;;5.30;;
8556;SDS011;4316;53.840;10.762;2023-06-19T06:28:52;5.85;;;5.28;;
8556;SDS011;4316;53.840;10.762;2023-06-19T06:31:17;6.28;;;5.28;;
8556;SDS011;4316;53.840;10.762;2023-06-19T06:33:43;6.03;;;5.10;;
8556;SDS011;4316;53.840;10.762;2023-06-19T06:36:08;8.55;;;5.78;;
8556;SDS011;4316;53.840;10.762;2023-06-19T06:38:34;7.55;;;5.72;;
8556;SDS011;4316;53.840;10.762;2023-06-19T06:40:59;5.93;;;5.32;;
8556;SDS011;4316;53.840;10.762;2023-06-19T06:43:25;7.05;;;6.00;;
8556;SDS011;4316;53.840;10.762;2023-06-19T06:45:51;6.43;;;5.80;;
8556;SDS011;4316;53.840;10.762;2023-06-19T06:48:16;9.60;;;5.68;;
8556;SDS011;4316;53.840;10.762;2023-06-19T06:50:42;8.80;;;5.75;;
8556;SDS011;4316;53.840;10.762;2023-06-19T06:53:08;12.90;;;5.93;;
8556;SDS011;4316;53.840;10.762;2023-06-19T06:55:33;9.35;;;6.53;;
8556;SDS011;4316;53.840;10.762;2023-06-19T06:57:59;6.43;;;5.72;;
8556;SDS011;4316;53.840;10.762;2023-06-19T07:00:25;8.27;;;5.60;;
8556;SDS011;4316;53.840;10.762;2023-06-19T07:02:50;6.47;;;5.55;;
8556;SDS011;4316;53.840;10.762;2023-06-19T07:05:16;6.18;;;5.57;;
8556;SDS011;4316;53.840;10.762;2023-06-19T07:07:42;5.85;;;5.32;;
8556;SDS011;4316;53.840;10.762;2023-06-19T07:10:08;7.82;;;5.63;;
8556;SDS011;4316;53.840;10.762;2023-06-19T07:12:34;6.25;;;5.72;;
8556;SDS011;4316;53.840;10.762;2023-06-19T07:15:00;7.10;;;6.25;;
8556;SDS011;4316;53.840;10.762;2023-06-19T07:17:25;7.82;;;6.28;;
8556;SDS011;4316;53.840;10.762;2023-06-19T07:19:51;9.20;;;5.93;;
8556;SDS011;4316;53.840;10.762;2023-06-19T07:22:17;10.25;;;5.82;;
8556;SDS011;4316;53.840;10.762;2023-06-19T07:24:42;7.20;;;5.63;;
8556;SDS011;4316;53.840;10.762;2023-06-19T07:27:08;7.03;;;6.13;;
8556;SDS011;4316;53.840;10.762;2023-06-19T07:29:34;7.70;;;6.53;;
8556;SDS011;4316;53.840;10.762;2023-06-19T07:31:59;7.40;;;6.25;;
8556;SDS011;4316;53.840;10.762;2023-06-19T07:34:27;6.88;;;6.20;;
8556;SDS011;4316;53.840;10.762;2023-06-19T07:36:53;7.13;;;6.05;;
8556;SDS011;4316;53.840;10.762;2023-06-19T07:39:18;7.15;;;5.80;;
8556;SDS011;4316;53.840;10.762;2023-06-19T07:41:44;14.40;;;6.55;;
8556;SDS011;4316;53.840;10.762;2023-06-19T07:44:10;9.10;;;6.32;;
8556;SDS011;4316;53.840;10.762;2023-06-19T07:46:36;10.18;;;5.82;;
8556;SDS011;4316;53.840;10.762;2023-06-19T07:49:02;10.15;;;5.68;;
8556;SDS011;4316;53.840;10.762;2023-06-19T07:51:27;8.68;;;5.82;;
8556;SDS011;4316;53.840;10.762;2023-06-19T07:53:53;6.75;;;5.95;;
8556;SDS011;4316;53.840;10.762;2023-06-19T07:56:18;7.10;;;6.35;;
8556;SDS011;4316;53.840;10.762;2023-06-19T07:58:44;6.22;;;5.63;;
8556;SDS011;4316;53.840;10.762;2023-06-19T08:01:09;7.18;;;5.88;;
8556;SDS011;4316;53.840;10.762;2023-06-19T08:03:35;7.03;;;6.32;;
8556;SDS011;4316;53.840;10.762;2023-06-19T08:06:01;14.90;;;10.13;;
8556;SDS011;4316;53.840;10.762;2023-06-19T08:08:26;8.80;;;7.90;;
8556;SDS011;4316;53.840;10.762;2023-06-19T08:10:52;10.00;;;6.68;;
8556;SDS011;4316;53.840;10.762;2023-06-19T08:13:18;6.25;;;5.65;;
8556;SDS011;4316;53.840;10.762;2023-06-19T08:15:43;6.80;;;5.97;;
8556;SDS011;4316;53.840;10.762;2023-06-19T08:18:10;6.25;;;5.72;;
8556;SDS011;4316;53.840;10.762;2023-06-19T08:20:35;8.27;;;6.90;;
8556;SDS011;4316;53.840;10.762;2023-06-19T08:23:01;6.38;;;5.78;;
8556;SDS011;4316;53.840;10.762;2023-06-19T08:25:26;7.88;;;6.75;;
8556;SDS011;4316;53.840;10.762;2023-06-19T08:27:52;9.27;;;6.47;;
8556;SDS011;4316;53.840;10.762;2023-06-19T08:30:18;11.98;;;6.38;;
8556;SDS011;4316;53.840;10.762;2023-06-19T08:32:44;8.95;;;6.20;;
8556;SDS011;4316;53.840;10.762;2023-06-19T08:35:11;10.18;;;6.43;;
8556;SDS011;4316;53.840;10.762;2023-06-19T08:37:37;14.45;;;6.50;;
8556;SDS011;4316;53.840;10.762;2023-06-19T08:40:03;7.43;;;6.72;;
8556;SDS011;4316;53.840;10.762;2023-06-19T08:42:33;16.60;;;6.75;;
8556;SDS011;4316;53.840;10.762;2023-06-19T08:44:59;7.20;;;6.40;;
8556;SDS011;4316;53.840;10.762;2023-06-19T08:47:29;6.53;;;5.85;;
8556;SDS011;4316;53.840;10.762;2023-06-19T08:49:56;8.25;;;6.45;;
8556;SDS011;4316;53.840;10.762;2023-06-19T08:52:23;17.35;;;14.20;;
8556;SDS011;4316;53.840;10.762;2023-06-19T08:54:48;7.93;;;6.43;;
8556;SDS011;4316;53.840;10.762;2023-06-19T08:57:14;8.00;;;6.55;;
8556;SDS011;4316;53.840;10.762;2023-06-19T08:59:41;7.07;;;6.28;;
8556;SDS011;4316;53.840;10.762;2023-06-19T09:02:15;9.57;;;6.47;;
8556;SDS011;4316;53.840;10.762;2023-06-19T09:04:41;6.78;;;6.07;;
8556;SDS011;4316;53.840;10.762;2023-06-19T09:07:07;8.30;;;6.30;;
8556;SDS011;4316;53.840;10.762;2023-06-19T09:09:44;12.43;;;5.85;;
8556;SDS011;4316;53.840;10.762;2023-06-19T09:12:13;7.38;;;6.28;;
8556;SDS011;4316;53.840;10.762;2023-06-19T09:14:43;6.60;;;6.07;;
8556;SDS011;4316;53.840;10.762;2023-06-19T09:17:11;6.38;;;5.78;;
8556;SDS011;4316;53.840;10.762;2023-06-19T09:19:48;9.35;;;6.18;;
8556;SDS011;4316;53.840;10.762;2023-06-19T09:22:15;6.90;;;6.15;;
8556;SDS011;4316;53.840;10.762;2023-06-19T09:24:43;7.03;;;5.68;;
8556;SDS011;4316;53.840;10.762;2023-06-19T09:27:09;11.52;;;6.10;;
8556;SDS011;4316;53.840;10.762;2023-06-19T09:29:39;7.40;;;6.35;;
8556;SDS011;4316;53.840;10.762;2023-06-19T09:32:18;7.07;;;6.20;;
8556;SDS011;4316;53.840;10.762;2023-06-19T09:34:53;9.63;;;6.55;;
8556;SDS011;4316;53.840;10.762;2023-06-19T09:37:24;7.15;;;5.80;;
8556;SDS011;4316;53.840;10.762;2023-06-19T09:39:58;6.65;;;5.75;;
8556;SDS011;4316;53.840;10.762;2023-06-19T09:42:36;12.20;;;6.57;;
8556;SDS011;4316;53.840;10.762;2023-06-19T09:45:04;7.88;;;5.53;;
8556;SDS011;4316;53.840;10.762;2023-06-19T09:47:32;10.25;;;5.90;;
8556;SDS011;4316;53.840;10.762;2023-06-19T09:50:00;6.90;;;6.20;;
8556;SDS011;4316;53.840;10.762;2023-06-19T09:52:28;5.93;;;5.43;;
8556;SDS011;4316;53.840;10.762;2023-06-19T09:55:04;6.82;;;6.15;;
8556;SDS011;4316;53.840;10.762;2023-06-19T09:57:32;11.50;;;5.80;;
8556;SDS011;4316;53.840;10.762;2023-06-19T09:59:58;6.45;;;5.50;;
8556;SDS011;4316;53.840;10.762;2023-06-19T10:02:42;7.95;;;5.07;;
8556;SDS011;4316;53.840;10.762;2023-06-19T10:05:10;6.22;;;5.63;;
8556;SDS011;4316;53.840;10.762;2023-06-19T10:07:41;5.28;;;4.88;;
8556;SDS011;4316;53.840;10.762;2023-06-19T10:10:09;8.95;;;5.63;;
8556;SDS011;4316;53.840;10.762;2023-06-19T10:15:18;7.25;;;5.57;;
8556;SDS011;4316;53.840;10.762;2023-06-19T10:17:45;10.07;;;5.20;;
8556;SDS011;4316;53.840;10.762;2023-06-19T10:20:22;5.80;;;5.30;;
8556;SDS011;4316;53.840;10.762;2023-06-19T10:23:01;8.90;;;5.47;;
8556;SDS011;4316;53.840;10.762;2023-06-19T10:25:29;11.95;;;5.20;;
8556;SDS011;4316;53.840;10.762;2023-06-19T10:27:57;7.93;;;5.07;;
8556;SDS011;4316;53.840;10.762;2023-06-19T10:30:23;6.32;;;4.90;;
8556;SDS011;4316;53.840;10.762;2023-06-19T10:32:49;5.70;;;5.10;;
8556;SDS011;4316;53.840;10.762;2023-06-19T10:35:15;5.68;;;5.00;;
8556;SDS011;4316;53.840;10.762;2023-06-19T10:37:42;7.93;;;4.90;;
8556;SDS011;4316;53.840;10.762;2023-06-19T10:40:09;8.75;;;4.47;;
8556;SDS011;4316;53.840;10.762;2023-06-19T10:42:42;6.15;;;5.07;;
8556;SDS011;4316;53.840;10.762;2023-06-19T10:45:11;6.50;;;5.25;;
8556;SDS011;4316;53.840;10.762;2023-06-19T10:47:38;7.72;;;5.35;;
8556;SDS011;4316;53.840;10.762;2023-06-19T10:50:09;8.48;;;5.70;;
8556;SDS011;4316;53.840;10.762;2023-06-19T10:52:36;9.45;;;5.38;;
8556;SDS011;4316;53.840;10.762;2023-06-19T10:55:04;11.15;;;5.65;;
8556;SDS011;4316;53.840;10.762;2023-06-19T10:57:30;10.23;;;5.68;;
8556;SDS011;4316;53.840;10.762;2023-06-19T10:59:56;5.93;;;4.82;;
8556;SDS011;4316;53.840;10.762;2023-06-19T11:02:23;11.75;;;5.75;;
8556;SDS011;4316;53.840;10.762;2023-06-19T11:04:53;5.60;;;5.10;;
8556;SDS011;4316;53.840;10.762;2023-06-19T11:07:19;7.18;;;5.40;;
8556;SDS011;4316;53.840;10.762;2023-06-19T11:09:47;5.93;;;4.80;;
8556;SDS011;4316;53.840;10.762;2023-06-19T11:12:18;4.68;;;4.30;;
8556;SDS011;4316;53.840;10.762;2023-06-19T11:14:44;9.05;;;4.60;;
8556;SDS011;4316;53.840;10.762;2023-06-19T11:17:10;4.70;;;4.28;;
8556;SDS011;4316;53.840;10.762;2023-06-19T11:19:35;4.82;;;4.43;;
8556;SDS011;4316;53.840;10.762;2023-06-19T11:22:03;4.65;;;4.30;;
8556;SDS011;4316;53.840;10.762;2023-06-19T11:24:29;5.55;;;4.47;;
8556;SDS011;4316;53.840;10.762;2023-06-19T11:26:55;5.88;;;4.47;;
8556;SDS011;4316;53.840;10.762;2023-06-19T11:29:28;4.15;;;3.75;;
8556;SDS011;4316;53.840;10.762;2023-06-19T11:32:05;4.60;;;4.05;;
8556;SDS011;4316;53.840;10.762;2023-06-19T11:34:33;5.15;;;4.45;;
8556;SDS011;4316;53.840;10.762;2023-06-19T11:37:02;4.47;;;4.07;;
8556;SDS011;4316;53.840;10.762;2023-06-19T11:39:36;13.10;;;4.45;;
8556;SDS011;4316;53.840;10.762;2023-06-19T11:42:02;4.95;;;4.53;;
8556;SDS011;4316;53.840;10.762;2023-06-19T11:44:28;4.97;;;4.50;;
8556;SDS011;4316;53.840;10.762;2023-06-19T11:46:57;8.70;;;4.25;;
8556;SDS011;4316;53.840;10.762;2023-06-19T11:49:24;5.78;;;4.00;;
8556;SDS011;4316;53.840;10.762;2023-06-19T11:51:50;8.07;;;4.30;;
8556;SDS011;4316;53.840;10.762;2023-06-19T11:54:16;5.97;;;4.65;;
8556;SDS011;4316;53.840;10.762;2023-06-19T11:56:42;4.18;;;3.83;;
8556;SDS011;4316;53.840;10.762;2023-06-19T11:59:08;5.93;;;4.30;;
8556;SDS011;4316;53.840;10.762;2023-06-19T12:01:34;8.40;;;4.80;;
8556;SDS011;4316;53.840;10.762;2023-06-19T12:04:01;6.53;;;4.80;;
8556;SDS011;4316;53.840;10.762;2023-06-19T12:06:27;5.03;;;4.25;;
8556;SDS011;4316;53.840;10.762;2023-06-19T12:08:53;9.57;;;4.70;;
8556;SDS011;4316;53.840;10.762;2023-06-19T12:11:19;5.88;;;4.90;;
8556;SDS011;4316;53.840;10.762;2023-06-19T12:13:45;4.80;;;4.32;;
8556;SDS011;4316;53.840;10.762;2023-06-19T12:16:10;6.65;;;4.55;;
8556;SDS011;4316;53.840;10.762;2023-06-19T12:18:36;6.47;;;4.25;;
8556;SDS011;4316;53.840;10.762;2023-06-19T12:21:02;4.80;;;4.40;;
8556;SDS011;4316;53.840;10.762;2023-06-19T12:23:28;5.13;;;4.38;;
8556;SDS011;4316;53.840;10.762;2023-06-19T12:25:55;9.35;;;4.30;;
8556;SDS011;4316;53.840;10.762;2023-06-19T12:28:21;6.43;;;4.80;;
8556;SDS011;4316;53.840;10.762;2023-06-19T12:30:47;7.15;;;4.53;;
8556;SDS011;4316;53.840;10.762;2023-06-19T12:33:20;6.47;;;4.65;;
8556;SDS011;4316;53.840;10.762;2023-06-19T12:35:48;8.10;;;4.75;;
8556;SDS011;4316;53.840;10.762;2023-06-19T12:38:14;5.45;;;4.47;;
8556;SDS011;4316;53.840;10.762;2023-06-19T12:40:40;5.75;;;4.93;;
8556;SDS011;4316;53.840;10.762;2023-06-19T12:43:06;8.10;;;4.70;;
8556;SDS011;4316;53.840;10.762;2023-06-19T12:45:32;6.97;;;4.60;;
8556;SDS011;4316;53.840;10.762;2023-06-19T12:47:57;8.13;;;5.53;;
8556;SDS011;4316;53.840;10.762;2023-06-19T12:50:23;6.32;;;4.88;;
8556;SDS011;4316;53.840;10.762;2023-06-19T12:52:49;8.98;;;4.90;;
8556;SDS011;4316;53.840;10.762;2023-06-19T12:55:15;9.63;;;5.60;;
8556;SDS011;4316;53.840;10.762;2023-06-19T12:57:41;7.82;;;5.20;;
8556;SDS011;4316;53.840;10.762;2023-06-19T13:00:09;6.60;;;5.10;;
8556;SDS011;4316;53.840;10.762;2023-06-19T13:02:37;8.38;;;5.57;;
8556;SDS011;4316;53.840;10.762;2023-06-19T13:05:02;7.03;;;5.25;;
8556;SDS011;4316;53.840;10.762;2023-06-19T13:07:28;5.80;;;5.00;;
8556;SDS011;4316;53.840;10.762;2023-06-19T13:09:54;8.40;;;5.60;;
8556;SDS011;4316;53.840;10.762;2023-06-19T13:12:21;5.95;;;5.35;;
8556;SDS011;4316;53.840;10.762;2023-06-19T13:14:47;5.30;;;4.90;;
8556;SDS011;4316;53.840;10.762;2023-06-19T13:17:13;16.40;;;5.63;;
8556;SDS011;4316;53.840;10.762;2023-06-19T13:19:39;8.10;;;5.38;;
8556;SDS011;4316;53.840;10.762;2023-06-19T13:22:05;8.52;;;5.47;;
8556;SDS011;4316;53.840;10.762;2023-06-19T13:24:30;6.05;;;5.45;;
8556;SDS011;4316;53.840;10.762;2023-06-19T13:26:56;7.15;;;5.88;;
8556;SDS011;4316;53.840;10.762;2023-06-19T13:29:22;5.78;;;5.28;;
8556;SDS011;4316;53.840;10.762;2023-06-19T13:31:47;6.65;;;5.82;;
8556;SDS011;4316;53.840;10.762;2023-06-19T13:34:13;5.88;;;5.35;;
8556;SDS011;4316;53.840;10.762;2023-06-19T13:36:38;8.32;;;5.70;;
8556;SDS011;4316;53.840;10.762;2023-06-19T13:39:05;17.65;;;5.60;;
8556;SDS011;4316;53.840;10.762;2023-06-19T13:41:30;7.82;;;5.88;;
8556;SDS011;4316;53.840;10.762;2023-06-19T13:43:57;6.63;;;5.88;;
8556;SDS011;4316;53.840;10.762;2023-06-19T13:46:23;13.90;;;5.60;;
8556;SDS011;4316;53.840;10.762;2023-06-19T13:48:49;6.13;;;5.53;;
8556;SDS011;4316;53.840;10.762;2023-06-19T13:51:19;8.98;;;5.45;;
8556;SDS011;4316;53.840;10.762;2023-06-19T13:53:46;7.13;;;5.60;;
8556;SDS011;4316;53.840;10.762;2023-06-19T13:56:12;8.05;;;5.45;;
8556;SDS011;4316;53.840;10.762;2023-06-19T13:58:38;6.05;;;5.30;;
8556;SDS011;4316;53.840;10.762;2023-06-19T14:01:04;8.15;;;5.18;;
8556;SDS011;4316;53.840;10.762;2023-06-19T14:03:31;9.95;;;4.97;;
8556;SDS011;4316;53.840;10.762;2023-06-19T14:05:56;10.80;;;5.22;;
8556;SDS011;4316;53.840;10.762;2023-06-19T14:08:22;7.65;;;5.10;;
8556;SDS011;4316;53.840;10.762;2023-06-19T14:10:49;5.57;;;5.07;;
8556;SDS011;4316;53.840;10.762;2023-06-19T14:13:15;6.78;;;5.25;;
8556;SDS011;4316;53.840;10.762;2023-06-19T14:15:40;7.70;;;4.90;;
8556;SDS011;4316;53.840;10.762;2023-06-19T14:18:06;5.53;;;4.85;;
8556;SDS011;4316;53.840;10.762;2023-06-19T14:20:31;6.68;;;4.75;;
8556;SDS011;4316;53.840;10.762;2023-06-19T14:22:57;5.57;;;4.90;;
8556;SDS011;4316;53.840;10.762;2023-06-19T14:25:22;5.03;;;4.63;;
8556;SDS011;4316;53.840;10.762;2023-06-19T14:27:48;6.80;;;4.95;;
8556;SDS011;4316;53.840;10.762;2023-06-19T14:30:14;6.00;;;4.90;;
8556;SDS011;4316;53.840;10.762;2023-06-19T14:32:39;5.18;;;4.72;;
8556;SDS011;4316;53.840;10.762;2023-06-19T14:35:05;10.70;;;5.38;;
8556;SDS011;4316;53.840;10.762;2023-06-19T14:37:31;6.80;;;5.10;;
8556;SDS011;4316;53.840;10.762;2023-06-19T14:39:56;10.73;;;5.90;;
8556;SDS011;4316;53.840;10.762;2023-06-19T14:42:22;6.90;;;4.53;;
8556;SDS011;4316;53.840;10.762;2023-06-19T14:44:48;5.43;;;4.93;;
8556;SDS011;4316;53.840;10.762;2023-06-19T14:47:14;12.93;;;4.65;;
8556;SDS011;4316;53.840;10.762;2023-06-19T14:49:39;5.97;;;4.53;;
8556;SDS011;4316;53.840;10.762;2023-06-19T14:52:05;6.78;;;4.65;;
8556;SDS011;4316;53.840;10.762;2023-06-19T14:54:31;11.80;;;4.82;;
8556;SDS011;4316;53.840;10.762;2023-06-19T14:56:57;8.75;;;4.85;;
8556;SDS011;4316;53.840;10.762;2023-06-19T14:59:22;8.07;;;4.53;;
8556;SDS011;4316;53.840;10.762;2023-06-19T15:01:48;6.38;;;4.72;;